createdAt,value
2023-10-10T00:00:56.158Z,23.40
2023-10-10T00:03:28.325Z,23.30
2023-10-10T00:05:59.618Z,23.70
2023-10-10T00:08:34.658Z,23.60
2023-10-10T00:11:10.282Z,23.70
2023-10-10T00:13:43.330Z,23.30
2023-10-10T00:16:12.649Z,23.20
2023-10-10T00:18:44.540Z,23.50
2023-10-10T00:21:18.511Z,23.40
2023-10-10T00:23:48.432Z,23.40
2023-10-10T00:26:17.049Z,23.50
2023-10-10T00:28:46.366Z,23.20
2023-10-10T00:31:19.684Z,23.50
2023-10-10T00:33:51.150Z,23.20
2023-10-10T00:36:23.495Z,23.70
2023-10-10T00:38:59.000Z,23.40
2023-10-10T00:41:27.924Z,23.20
2023-10-10T00:43:57.035Z,23.50
2023-10-10T00:46:29.411Z,23.10
2023-10-10T00:49:01.508Z,23.10
2023-10-10T00:51:32.765Z,23.40
2023-10-10T00:54:13.345Z,23.20
2023-10-10T00:56:45.187Z,23.50
2023-10-10T00:59:17.391Z,23.30
2023-10-10T01:01:46.927Z,23.20
2023-10-10T01:04:15.269Z,23.20
2023-10-10T01:06:43.312Z,23.10
2023-10-10T01:09:22.538Z,23.10
2023-10-10T01:11:51.027Z,23.10
2023-10-10T01:14:22.371Z,23.10
2023-10-10T01:16:59.224Z,23.50
2023-10-10T01:19:29.693Z,23.40
2023-10-10T01:22:00.638Z,23.40
2023-10-10T01:24:32.073Z,23.20
2023-10-10T01:27:06.083Z,23.40
2023-10-10T01:29:41.789Z,23.10
2023-10-10T01:32:12.024Z,23.10
2023-10-10T01:34:44.707Z,23.20
2023-10-10T01:37:21.799Z,23.00
2023-10-10T01:40:12.920Z,23.40
2023-10-10T01:42:46.155Z,23.10
2023-10-10T01:45:19.855Z,23.30
2023-10-10T01:47:58.673Z,23.10
2023-10-10T01:50:28.247Z,23.00
2023-10-10T01:52:58.864Z,23.10
2023-10-10T01:55:27.654Z,23.30
2023-10-10T01:57:58.762Z,23.10
2023-10-10T02:00:28.917Z,23.00
2023-10-10T02:02:58.071Z,23.10
2023-10-10T02:05:43.713Z,23.10
2023-10-10T02:08:18.008Z,23.20
2023-10-10T02:10:50.836Z,23.20
2023-10-10T02:13:20.882Z,23.00
2023-10-10T02:15:48.876Z,23.00
2023-10-10T02:18:24.966Z,23.00
2023-10-10T02:20:54.033Z,23.30
2023-10-10T02:23:32.222Z,23.10
2023-10-10T02:26:15.235Z,23.00
2023-10-10T02:28:48.513Z,23.20
2023-10-10T02:31:19.412Z,23.10
2023-10-10T02:33:52.713Z,23.10
2023-10-10T02:36:31.606Z,23.30
2023-10-10T02:39:20.020Z,23.20
2023-10-10T02:41:52.848Z,23.30
2023-10-10T02:44:41.510Z,23.00
2023-10-10T02:47:13.325Z,23.00
2023-10-10T02:49:43.142Z,23.10
2023-10-10T02:52:15.425Z,23.10
2023-10-10T02:54:55.034Z,23.10
2023-10-10T02:57:29.726Z,23.30
2023-10-10T03:03:00.532Z,23.30
2023-10-10T03:05:40.626Z,23.00
2023-10-10T03:08:14.815Z,23.00
2023-10-10T03:10:47.697Z,23.30
2023-10-10T03:13:28.953Z,23.30
2023-10-10T03:15:57.504Z,22.80
2023-10-10T03:18:36.210Z,23.30
2023-10-10T03:21:25.087Z,23.10
2023-10-10T03:23:57.809Z,22.90
2023-10-10T03:26:52.017Z,23.40
2023-10-10T03:29:37.770Z,23.10
2023-10-10T03:32:32.105Z,23.00
2023-10-10T03:35:07.255Z,23.30
2023-10-10T03:37:42.418Z,23.30
2023-10-10T03:40:31.336Z,23.20
2023-10-10T03:43:16.809Z,22.90
2023-10-10T03:46:02.432Z,23.00
2023-10-10T03:48:48.344Z,23.20
2023-10-10T03:51:35.384Z,23.30
2023-10-10T03:54:20.960Z,23.10
2023-10-10T03:57:06.542Z,23.10
2023-10-10T03:59:52.215Z,23.00
2023-10-10T04:02:37.497Z,23.10
2023-10-10T04:05:38.845Z,22.90
2023-10-10T04:08:25.735Z,23.10
2023-10-10T04:11:11.067Z,23.20
2023-10-10T04:13:56.541Z,23.10
2023-10-10T04:16:42.382Z,22.90
2023-10-10T04:19:27.899Z,23.10
2023-10-10T04:22:13.408Z,23.20
2023-10-10T04:25:02.386Z,23.10
2023-10-10T04:27:48.705Z,23.20
2023-10-10T04:30:34.338Z,22.90
2023-10-10T04:33:19.960Z,23.00
2023-10-10T04:36:05.361Z,22.90
2023-10-10T04:38:51.034Z,23.20
2023-10-10T04:41:37.956Z,22.80
2023-10-10T04:44:24.422Z,22.70
2023-10-10T04:47:09.985Z,22.90
2023-10-10T04:49:55.501Z,22.80
2023-10-10T04:52:41.300Z,23.00
2023-10-10T04:55:27.727Z,23.10
2023-10-10T04:58:14.765Z,23.00
2023-10-10T05:01:00.372Z,23.10
2023-10-10T05:03:45.983Z,22.90
2023-10-10T05:06:33.588Z,22.90
2023-10-10T05:09:20.904Z,22.80
2023-10-10T05:12:06.472Z,23.00
2023-10-10T05:14:53.376Z,23.20
2023-10-10T05:17:38.988Z,22.70
2023-10-10T05:20:26.516Z,23.10
2023-10-10T05:23:12.535Z,23.20
2023-10-10T05:25:42.460Z,23.00
2023-10-10T05:28:12.160Z,23.00
2023-10-10T05:30:45.910Z,23.30
2023-10-10T05:33:15.171Z,23.10
2023-10-10T05:35:48.554Z,23.00
2023-10-10T05:38:17.476Z,22.70
2023-10-10T05:40:48.324Z,22.90
2023-10-10T05:43:17.537Z,23.00
2023-10-10T05:45:48.808Z,23.10
2023-10-10T05:48:16.891Z,23.00
2023-10-10T05:50:44.912Z,23.00
2023-10-10T05:53:13.040Z,23.10
2023-10-10T05:55:41.948Z,23.20
2023-10-10T05:58:12.078Z,23.10
2023-10-10T06:00:42.765Z,22.90
2023-10-10T06:03:13.326Z,23.00
2023-10-10T06:05:45.198Z,23.10
2023-10-10T06:08:14.775Z,22.90
2023-10-10T06:10:42.967Z,23.00
2023-10-10T06:13:12.465Z,23.00
2023-10-10T06:15:41.235Z,23.00
2023-10-10T06:18:14.243Z,22.90
2023-10-10T06:23:17.127Z,22.90
2023-10-10T06:25:46.942Z,22.80
2023-10-10T06:28:25.947Z,22.90
2023-10-10T06:30:54.998Z,23.00
2023-10-10T06:33:29.558Z,23.00
2023-10-10T06:36:29.172Z,23.00
2023-10-10T06:39:18.041Z,22.90
2023-10-10T06:41:51.561Z,22.80
2023-10-10T06:44:34.168Z,22.80
2023-10-10T06:47:09.678Z,23.00
2023-10-10T06:49:45.429Z,23.20
2023-10-10T06:52:19.280Z,23.10
2023-10-10T06:54:54.753Z,23.00
2023-10-10T06:57:39.215Z,23.10
2023-10-10T07:00:30.086Z,23.10
2023-10-10T07:02:59.082Z,23.00
2023-10-10T07:05:34.706Z,22.90
2023-10-10T07:08:14.747Z,22.90
2023-10-10T07:10:44.105Z,22.90
2023-10-10T07:13:14.727Z,22.90
2023-10-10T07:15:44.074Z,22.60
2023-10-10T07:18:16.552Z,23.00
2023-10-10T07:21:04.630Z,22.90
2023-10-10T07:24:01.162Z,22.90
2023-10-10T07:26:32.026Z,22.90
2023-10-10T07:29:20.206Z,22.80
2023-10-10T07:31:48.253Z,23.20
2023-10-10T07:34:17.413Z,23.00
2023-10-10T07:36:45.807Z,22.90
2023-10-10T07:39:32.870Z,23.10
2023-10-10T07:42:01.083Z,22.90
2023-10-10T07:44:31.269Z,23.10
2023-10-10T07:47:17.072Z,23.00
2023-10-10T07:49:51.682Z,23.00
2023-10-10T07:52:21.425Z,22.90
2023-10-10T07:54:54.664Z,23.10
2023-10-10T07:57:29.508Z,22.90
2023-10-10T07:59:58.286Z,22.80
2023-10-10T08:02:32.761Z,23.00
2023-10-10T08:05:10.277Z,23.20
2023-10-10T08:07:38.651Z,23.20
2023-10-10T08:10:30.406Z,22.90
2023-10-10T08:12:58.610Z,22.70
2023-10-10T08:15:27.075Z,22.60
2023-10-10T08:17:57.217Z,22.90
2023-10-10T08:20:35.851Z,23.00
2023-10-10T08:23:05.749Z,22.50
2023-10-10T08:25:38.870Z,22.70
2023-10-10T08:28:07.113Z,22.80
2023-10-10T08:30:35.395Z,22.80
2023-10-10T08:33:04.234Z,23.00
2023-10-10T08:35:40.158Z,22.90
2023-10-10T08:38:08.699Z,22.90
2023-10-10T08:40:41.908Z,23.20
2023-10-10T08:43:10.264Z,23.00
2023-10-10T08:45:44.818Z,23.00
2023-10-10T08:48:14.667Z,23.00
2023-10-10T08:50:45.828Z,23.30
2023-10-10T08:53:14.778Z,23.40
2023-10-10T08:55:44.585Z,23.40
2023-10-10T08:58:12.815Z,23.30
2023-10-10T09:00:41.294Z,23.10
2023-10-10T09:03:10.199Z,23.40
2023-10-10T09:05:38.703Z,23.50
2023-10-10T09:08:15.329Z,23.40
2023-10-10T09:10:47.292Z,23.20
2023-10-10T09:13:17.796Z,23.40
2023-10-10T09:15:56.029Z,23.50
2023-10-10T09:18:26.784Z,23.30
2023-10-10T09:21:19.034Z,23.50
2023-10-10T09:24:07.795Z,23.30
2023-10-10T09:26:38.508Z,23.50
2023-10-10T09:29:16.682Z,23.40
2023-10-10T09:31:46.748Z,23.50
2023-10-10T09:34:19.542Z,23.80
2023-10-10T09:36:55.926Z,23.60
2023-10-10T09:39:37.461Z,23.60
2023-10-10T09:42:28.953Z,23.60
2023-10-10T09:45:15.841Z,23.60
2023-10-10T09:47:56.799Z,23.60
2023-10-10T09:50:46.456Z,23.50
2023-10-10T09:53:24.460Z,23.60
2023-10-10T09:56:02.379Z,24.00
2023-10-10T09:58:42.781Z,23.30
2023-10-10T10:01:20.118Z,23.70
2023-10-10T10:03:57.010Z,23.70
2023-10-10T10:06:49.313Z,23.70
2023-10-10T10:10:21.554Z,23.70
2023-10-10T10:13:14.777Z,23.30
2023-10-10T10:16:09.644Z,23.50
2023-10-10T10:18:46.425Z,23.40
2023-10-10T10:21:28.812Z,23.60
2023-10-10T10:24:13.934Z,23.80
2023-10-10T10:26:44.583Z,23.80
2023-10-10T10:29:29.633Z,23.50
2023-10-10T10:32:02.370Z,23.70
2023-10-10T10:34:36.130Z,24.00
2023-10-10T10:37:08.849Z,24.10
2023-10-10T10:39:40.106Z,23.80
2023-10-10T10:42:14.008Z,23.70
2023-10-10T10:44:54.726Z,23.90
2023-10-10T10:47:55.622Z,23.80
2023-10-10T10:50:46.659Z,24.10
2023-10-10T10:53:34.942Z,23.80
2023-10-10T10:56:22.574Z,23.70
2023-10-10T10:59:12.127Z,23.90
2023-10-10T11:01:52.376Z,24.00
2023-10-10T11:04:44.043Z,24.10
2023-10-10T11:07:17.243Z,24.40
2023-10-10T11:09:53.944Z,24.00
2023-10-10T11:12:32.349Z,24.30
2023-10-10T11:15:08.745Z,24.30
2023-10-10T11:17:40.959Z,24.00
2023-10-10T11:20:51.520Z,24.00
2023-10-10T11:23:21.871Z,24.20
2023-10-10T11:26:01.419Z,24.10
2023-10-10T11:28:46.555Z,24.40
2023-10-10T11:31:15.341Z,24.30
2023-10-10T11:33:52.009Z,24.10
2023-10-10T11:36:30.181Z,24.30
2023-10-10T11:39:17.803Z,24.40
2023-10-10T11:41:47.594Z,24.50
2023-10-10T11:44:21.059Z,24.30
2023-10-10T11:46:50.788Z,24.50
2023-10-10T11:49:19.900Z,24.40
2023-10-10T11:51:49.246Z,24.70
2023-10-10T11:54:26.158Z,24.20
2023-10-10T11:56:54.236Z,24.50
2023-10-10T11:59:23.442Z,24.30
2023-10-10T12:02:08.447Z,24.50
2023-10-10T12:04:38.943Z,24.50
2023-10-10T12:07:08.362Z,24.80
2023-10-10T12:09:39.826Z,24.60
2023-10-10T12:12:07.969Z,24.70
2023-10-10T12:14:36.126Z,24.50
2023-10-10T12:17:07.269Z,24.60
2023-10-10T12:19:44.543Z,24.40
2023-10-10T12:22:14.794Z,24.90
2023-10-10T12:24:42.907Z,24.60
2023-10-10T12:27:11.238Z,24.80
2023-10-10T12:29:41.482Z,24.50
2023-10-10T12:32:23.370Z,24.50
2023-10-10T12:34:51.547Z,24.30
2023-10-10T12:37:24.244Z,24.80
2023-10-10T12:39:53.471Z,24.70
2023-10-10T12:42:21.477Z,24.70
2023-10-10T12:44:49.552Z,24.70
2023-10-10T12:47:20.287Z,24.60
2023-10-10T12:49:48.307Z,24.90
2023-10-10T12:52:18.274Z,24.80
2023-10-10T12:54:57.990Z,24.70
2023-10-10T12:57:25.973Z,24.40
2023-10-10T13:00:14.036Z,24.80
2023-10-10T13:02:42.206Z,25.00
2023-10-10T13:05:12.326Z,24.60
2023-10-10T13:07:42.429Z,24.90
2023-10-10T13:10:14.211Z,24.80
2023-10-10T13:12:46.260Z,25.10
2023-10-10T13:15:19.518Z,24.50
2023-10-10T13:17:55.469Z,24.80
2023-10-10T13:20:23.822Z,24.70
2023-10-10T13:22:52.404Z,24.80
2023-10-10T13:25:23.115Z,25.00
2023-10-10T13:27:53.256Z,24.90
2023-10-10T13:30:21.441Z,24.60
2023-10-10T13:32:49.497Z,24.70
2023-10-10T13:35:20.958Z,25.30
2023-10-10T13:37:49.139Z,24.80
2023-10-10T13:40:23.790Z,24.60
2023-10-10T13:42:53.244Z,24.70
2023-10-10T13:45:23.665Z,24.80
2023-10-10T13:47:52.183Z,25.20
2023-10-10T13:50:32.236Z,24.90
2023-10-10T13:53:00.998Z,25.30
2023-10-10T13:55:35.029Z,24.80
2023-10-10T13:58:08.341Z,25.00
2023-10-10T14:00:42.658Z,24.90
2023-10-10T14:03:11.099Z,25.10
2023-10-10T14:05:43.044Z,24.70
2023-10-10T14:08:18.909Z,24.80
2023-10-10T14:10:51.273Z,25.10
2023-10-10T14:13:24.762Z,24.90
2023-10-10T14:15:57.414Z,25.00
2023-10-10T14:18:29.144Z,25.20
2023-10-10T14:21:02.251Z,25.10
2023-10-10T14:23:36.394Z,25.20
2023-10-10T14:26:13.725Z,25.40
2023-10-10T14:28:51.259Z,25.40
2023-10-10T14:31:22.213Z,25.20
2023-10-10T14:33:50.959Z,24.80
2023-10-10T14:36:19.774Z,24.90
2023-10-10T14:38:51.074Z,25.10
2023-10-10T14:41:21.918Z,25.10
2023-10-10T14:43:55.562Z,25.00
2023-10-10T14:46:28.284Z,25.20
2023-10-10T14:49:06.318Z,24.80
2023-10-10T14:51:36.569Z,25.00
2023-10-10T14:54:09.676Z,24.60
2023-10-10T14:56:39.238Z,24.50
2023-10-10T14:59:11.694Z,24.60
2023-10-10T15:01:39.737Z,24.80
2023-10-10T15:04:09.737Z,24.50
2023-10-10T15:06:40.767Z,24.80
2023-10-10T15:09:14.572Z,24.70
2023-10-10T15:11:47.617Z,24.50
2023-10-10T15:14:20.071Z,24.50
2023-10-10T15:16:48.501Z,24.80
2023-10-10T15:19:17.053Z,24.70
2023-10-10T15:21:49.280Z,24.70
2023-10-10T15:24:17.438Z,24.80
2023-10-10T15:26:48.798Z,24.90
2023-10-10T15:29:22.199Z,25.10
2023-10-10T15:31:51.284Z,24.90
2023-10-10T15:34:19.782Z,25.10
2023-10-10T15:36:47.850Z,24.70
2023-10-10T15:39:16.877Z,24.70
2023-10-10T15:41:45.822Z,24.90
2023-10-10T15:44:16.312Z,24.80
2023-10-10T15:46:46.102Z,25.00
2023-10-10T15:49:33.198Z,25.10
2023-10-10T15:52:05.253Z,25.20
2023-10-10T15:54:36.112Z,24.70
2023-10-10T15:57:07.537Z,24.60
2023-10-10T15:59:36.702Z,25.20
2023-10-10T16:02:10.322Z,25.00
2023-10-10T16:04:43.289Z,25.00
2023-10-10T16:07:11.856Z,25.00
2023-10-10T16:09:39.850Z,24.90
2023-10-10T16:12:13.491Z,24.90
2023-10-10T16:14:41.609Z,24.80
2023-10-10T16:17:16.683Z,24.80
2023-10-10T16:19:44.974Z,24.80
2023-10-10T16:22:14.362Z,25.20
2023-10-10T16:24:42.403Z,25.00
2023-10-10T16:27:10.466Z,25.10
2023-10-10T16:29:38.498Z,25.20
2023-10-10T16:32:09.414Z,24.90
2023-10-10T16:34:44.167Z,24.90
2023-10-10T16:37:15.380Z,24.90
2023-10-10T16:39:45.826Z,24.80
2023-10-10T16:42:14.844Z,25.00
2023-10-10T16:44:42.933Z,25.00
2023-10-10T16:47:14.957Z,24.80
2023-10-10T16:49:44.294Z,24.90
2023-10-10T16:52:12.468Z,24.80
2023-10-10T16:54:46.905Z,25.10
2023-10-10T16:57:14.961Z,24.80
2023-10-10T16:59:43.969Z,24.90
2023-10-10T17:02:12.702Z,25.00
2023-10-10T17:04:41.253Z,24.80
2023-10-10T17:07:12.327Z,25.30
2023-10-10T17:09:41.174Z,25.00
2023-10-10T17:12:09.406Z,25.10
2023-10-10T17:14:38.521Z,25.00
2023-10-10T17:17:06.768Z,25.00
2023-10-10T17:19:36.715Z,25.10
2023-10-10T17:22:04.881Z,25.10
2023-10-10T17:24:34.238Z,24.90
2023-10-10T17:27:07.544Z,24.80
2023-10-10T17:29:36.881Z,25.00
2023-10-10T17:32:06.863Z,25.10
2023-10-10T17:34:35.012Z,24.70
2023-10-10T17:37:09.559Z,24.80
2023-10-10T17:39:38.919Z,24.70
2023-10-10T17:42:08.030Z,25.10
2023-10-10T17:44:38.916Z,25.20
2023-10-10T17:47:07.469Z,24.90
2023-10-10T17:49:35.962Z,24.60
2023-10-10T17:52:04.364Z,24.90
2023-10-10T17:54:32.505Z,25.00
2023-10-10T17:57:01.930Z,24.80
2023-10-10T17:59:32.131Z,24.90
2023-10-10T18:02:00.707Z,24.80
2023-10-10T18:04:29.364Z,24.80
2023-10-10T18:07:00.910Z,25.00
2023-10-10T18:09:33.285Z,25.00
2023-10-10T18:12:03.493Z,24.80
2023-10-10T18:14:31.884Z,25.30
2023-10-10T18:16:59.882Z,25.00
2023-10-10T18:19:28.645Z,25.00
2023-10-10T18:21:56.750Z,25.10
2023-10-10T18:24:28.238Z,25.30
2023-10-10T18:26:57.272Z,24.80
2023-10-10T18:29:27.548Z,25.10
2023-10-10T18:31:58.951Z,25.40
2023-10-10T18:34:26.982Z,25.20
2023-10-10T18:36:55.012Z,25.10
2023-10-10T18:39:27.620Z,25.00
2023-10-10T18:41:55.794Z,25.00
2023-10-10T18:44:25.850Z,25.30
2023-10-10T18:46:53.873Z,24.90
2023-10-10T18:49:22.960Z,25.30
2023-10-10T18:51:51.194Z,24.90
2023-10-10T18:54:20.269Z,25.40
2023-10-10T18:56:50.835Z,25.40
2023-10-10T18:59:19.089Z,25.10
2023-10-10T19:01:49.630Z,25.20
2023-10-10T19:04:19.569Z,25.20
2023-10-10T19:06:51.264Z,24.90
2023-10-10T19:09:23.998Z,25.10
2023-10-10T19:11:55.590Z,25.50
2023-10-10T19:14:23.776Z,25.00
2023-10-10T19:16:54.162Z,25.40
2023-10-10T19:19:22.230Z,25.20
2023-10-10T19:21:50.263Z,25.10
2023-10-10T19:24:21.321Z,25.20
2023-10-10T19:26:49.427Z,25.30
2023-10-10T19:29:18.471Z,25.40
2023-10-10T19:31:46.564Z,25.10
2023-10-10T19:34:16.902Z,25.00
2023-10-10T19:36:45.772Z,25.20
2023-10-10T19:39:16.519Z,25.20
2023-10-10T19:41:44.755Z,25.20
2023-10-10T19:44:15.897Z,25.40
2023-10-10T19:46:45.347Z,25.30
2023-10-10T19:49:15.416Z,25.30
2023-10-10T19:51:45.467Z,25.20
2023-10-10T19:54:14.155Z,25.50
2023-10-10T19:56:43.923Z,25.00
2023-10-10T19:59:12.013Z,25.50
2023-10-10T20:01:40.098Z,25.50
2023-10-10T20:04:08.593Z,25.10
2023-10-10T20:06:38.243Z,24.90
2023-10-10T20:09:11.535Z,25.20
2023-10-10T20:11:41.603Z,25.10
2023-10-10T20:14:10.519Z,24.80
2023-10-10T20:16:39.554Z,24.90
2023-10-10T20:19:08.190Z,25.10
2023-10-10T20:21:37.622Z,25.20
2023-10-10T20:24:09.328Z,24.80
2023-10-10T20:26:37.778Z,25.20
2023-10-10T20:29:10.433Z,25.10
2023-10-10T20:31:38.388Z,25.20
2023-10-10T20:34:06.452Z,25.00
2023-10-10T20:36:37.717Z,25.00
2023-10-10T20:39:07.632Z,24.70
2023-10-10T20:41:35.745Z,24.80
2023-10-10T20:44:03.809Z,25.00
2023-10-10T20:46:32.538Z,24.80
2023-10-10T20:49:01.499Z,24.70
2023-10-10T20:51:29.516Z,24.90
2023-10-10T20:53:57.866Z,24.80
2023-10-10T20:56:28.565Z,24.00
2023-10-10T20:58:56.557Z,23.90
2023-10-10T21:01:24.588Z,24.00
2023-10-10T21:03:52.712Z,24.40
2023-10-10T21:06:21.746Z,24.50
2023-10-10T21:08:50.271Z,24.50
2023-10-10T21:11:18.465Z,24.80
2023-10-10T21:13:48.000Z,24.80
2023-10-10T21:16:17.212Z,24.50
2023-10-10T21:18:47.426Z,24.50
2023-10-10T21:21:16.103Z,24.80
2023-10-10T21:23:44.619Z,24.80
2023-10-10T21:26:15.046Z,24.70
2023-10-10T21:28:43.833Z,24.90
2023-10-10T21:31:13.545Z,24.60
2023-10-10T21:33:44.756Z,24.80
2023-10-10T21:36:13.781Z,24.70
2023-10-10T21:38:42.055Z,24.50
2023-10-10T21:41:10.932Z,24.80
2023-10-10T21:43:39.723Z,24.70
2023-10-10T21:46:08.159Z,24.80
2023-10-10T21:48:37.837Z,24.90
2023-10-10T21:51:08.431Z,24.70
2023-10-10T21:53:38.448Z,24.70
2023-10-10T21:56:07.629Z,24.80
2023-10-10T21:58:39.431Z,24.90
2023-10-10T22:01:07.684Z,24.70
2023-10-10T22:03:38.722Z,24.80
2023-10-10T22:06:08.516Z,24.70
2023-10-10T22:08:37.459Z,24.60
2023-10-10T22:11:08.774Z,24.80
2023-10-10T22:13:37.555Z,24.70
2023-10-10T22:16:06.443Z,24.70
2023-10-10T22:18:34.590Z,24.80
2023-10-10T22:21:04.288Z,24.80
2023-10-10T22:23:32.460Z,25.00
2023-10-10T22:26:03.654Z,24.70
2023-10-10T22:28:32.766Z,24.60
2023-10-10T22:31:00.951Z,24.70
2023-10-10T22:33:29.298Z,24.50
2023-10-10T22:35:57.521Z,24.50
2023-10-10T22:38:26.919Z,24.80
2023-10-10T22:40:56.814Z,24.80
2023-10-10T22:43:26.340Z,24.50
2023-10-10T22:45:54.342Z,24.70
2023-10-10T22:48:22.813Z,24.80
2023-10-10T22:50:53.858Z,24.60
2023-10-10T22:53:22.121Z,24.40
2023-10-10T22:55:51.985Z,24.60
2023-10-10T22:58:21.243Z,24.80
2023-10-10T23:00:49.596Z,24.50
2023-10-10T23:03:20.554Z,24.70
2023-10-10T23:05:49.097Z,24.70
2023-10-10T23:08:18.948Z,24.80
2023-10-10T23:10:49.188Z,24.60
2023-10-10T23:13:18.649Z,24.80
2023-10-10T23:15:50.143Z,24.40
2023-10-10T23:18:19.007Z,24.90
2023-10-10T23:20:47.762Z,24.60
2023-10-10T23:23:16.945Z,24.60
2023-10-10T23:25:45.334Z,24.80
2023-10-10T23:28:13.394Z,24.60
2023-10-10T23:30:43.401Z,24.80
2023-10-10T23:33:14.068Z,24.80
2023-10-10T23:35:43.032Z,24.60
2023-10-10T23:38:11.798Z,24.40
2023-10-10T23:40:41.946Z,24.30
2023-10-10T23:43:12.034Z,24.60
2023-10-10T23:45:43.094Z,24.50
2023-10-10T23:48:16.702Z,24.80
2023-10-10T23:50:45.626Z,24.70
2023-10-10T23:53:15.021Z,24.30
2023-10-10T23:55:47.568Z,24.50
2023-10-10T23:58:16.330Z,24.50
